createdAt,value
2023-05-31T00:00:12.562Z,5.28
2023-05-31T00:02:38.978Z,5.07
2023-05-31T00:05:05.354Z,5.33
2023-05-31T00:07:34.165Z,5.43
2023-05-31T00:10:00.545Z,5.20
2023-05-31T00:12:26.936Z,5.29
2023-05-31T00:14:53.327Z,5.33
2023-05-31T00:19:48.926Z,5.37
2023-05-31T00:22:15.311Z,4.89
2023-05-31T00:24:41.674Z,5.54
2023-05-31T00:27:08.045Z,5.33
2023-05-31T00:29:34.439Z,5.40
2023-05-31T00:32:01.009Z,5.32
2023-05-31T00:34:27.365Z,5.21
2023-05-31T00:36:53.760Z,5.42
2023-05-31T00:39:20.149Z,5.36
2023-05-31T00:41:46.508Z,5.54
2023-05-31T00:44:12.891Z,5.31
2023-05-31T00:46:39.265Z,5.36
2023-05-31T00:49:05.623Z,5.73
2023-05-31T00:51:31.996Z,5.55
2023-05-31T00:53:58.357Z,5.22
2023-05-31T00:56:24.718Z,5.40
2023-05-31T00:58:51.210Z,5.53
2023-05-31T01:01:17.624Z,5.24
2023-05-31T01:03:44.071Z,5.91
2023-05-31T01:06:10.521Z,5.63
2023-05-31T01:08:36.888Z,5.62
2023-05-31T01:11:03.258Z,5.51
2023-05-31T01:13:29.669Z,5.45
2023-05-31T01:15:56.079Z,5.46
2023-05-31T01:18:22.452Z,5.62
2023-05-31T01:20:48.920Z,5.45
2023-05-31T01:23:15.327Z,5.78
2023-05-31T01:25:41.692Z,5.86
2023-05-31T01:28:08.112Z,5.55
2023-05-31T01:30:34.471Z,5.59
2023-05-31T01:33:00.948Z,5.83
2023-05-31T01:35:27.355Z,5.70
2023-05-31T01:37:53.718Z,5.52
2023-05-31T01:40:20.088Z,5.58
2023-05-31T01:42:46.451Z,5.78
2023-05-31T01:45:12.811Z,5.76
2023-05-31T01:47:39.198Z,5.42
2023-05-31T01:50:05.596Z,5.82
2023-05-31T01:52:31.956Z,5.74
2023-05-31T01:54:58.317Z,5.83
2023-05-31T01:57:24.688Z,5.75
2023-05-31T01:59:51.055Z,5.92
2023-05-31T02:02:17.413Z,5.92
2023-05-31T02:04:43.794Z,5.97
2023-05-31T02:07:10.145Z,5.36
2023-05-31T02:09:36.511Z,5.79
2023-05-31T02:12:02.881Z,5.80
2023-05-31T02:14:29.294Z,5.82
2023-05-31T02:16:55.690Z,5.66
2023-05-31T02:19:22.152Z,5.87
2023-05-31T02:21:48.499Z,5.77
2023-05-31T02:24:14.855Z,5.78
2023-05-31T02:26:41.255Z,5.54
2023-05-31T02:29:07.630Z,6.16
2023-05-31T02:31:34.030Z,5.57
2023-05-31T02:34:00.541Z,5.85
2023-05-31T02:36:26.899Z,5.77
2023-05-31T02:38:53.263Z,5.58
2023-05-31T02:41:19.665Z,5.45
2023-05-31T02:43:46.018Z,5.84
2023-05-31T02:46:12.439Z,6.00
2023-05-31T02:48:38.888Z,5.65
2023-05-31T02:51:05.237Z,6.07
2023-05-31T02:53:31.595Z,5.76
2023-05-31T02:55:57.966Z,6.18
2023-05-31T02:58:24.408Z,5.73
2023-05-31T03:00:50.860Z,5.67
2023-05-31T03:03:17.341Z,5.70
2023-05-31T03:05:43.824Z,5.76
2023-05-31T03:08:10.267Z,5.82
2023-05-31T03:10:36.721Z,5.72
2023-05-31T03:13:03.179Z,5.87
2023-05-31T03:15:29.632Z,5.95
2023-05-31T03:17:56.182Z,5.89
2023-05-31T03:20:22.669Z,5.84
2023-05-31T03:22:49.107Z,5.38
2023-05-31T03:25:15.597Z,5.81
2023-05-31T03:27:42.157Z,6.09
2023-05-31T03:30:08.587Z,5.95
2023-05-31T03:32:36.234Z,6.04
2023-05-31T03:35:04.137Z,5.83
2023-05-31T03:37:30.575Z,6.14
2023-05-31T03:39:57.041Z,6.23
2023-05-31T03:42:23.486Z,5.78
2023-05-31T03:44:49.945Z,6.16
2023-05-31T03:47:16.402Z,5.98
2023-05-31T03:49:42.854Z,5.78
2023-05-31T03:52:09.282Z,6.12
2023-05-31T03:54:35.734Z,5.90
2023-05-31T03:57:02.171Z,5.64
2023-05-31T03:59:28.640Z,5.82
2023-05-31T04:01:55.104Z,6.01
2023-05-31T04:04:21.740Z,5.96
2023-05-31T04:06:48.272Z,6.14
2023-05-31T04:09:14.739Z,5.89
2023-05-31T04:11:41.168Z,6.03
2023-05-31T04:14:07.610Z,6.10
2023-05-31T04:16:34.224Z,5.87
2023-05-31T04:19:00.761Z,6.07
2023-05-31T04:21:27.161Z,6.27
2023-05-31T04:23:53.783Z,5.89
2023-05-31T04:26:20.197Z,6.01
2023-05-31T04:28:46.766Z,6.22
2023-05-31T04:31:13.236Z,6.10
2023-05-31T04:33:39.702Z,6.28
2023-05-31T04:36:06.088Z,6.14
2023-05-31T04:38:32.474Z,5.77
2023-05-31T04:40:59.220Z,6.27
2023-05-31T04:43:25.694Z,5.92
2023-05-31T04:45:52.134Z,6.28
2023-05-31T04:48:21.031Z,6.16
2023-05-31T04:50:47.426Z,6.00
2023-05-31T04:53:13.819Z,6.24
2023-05-31T04:55:40.184Z,6.18
2023-05-31T04:58:06.566Z,5.80
2023-05-31T05:00:32.940Z,6.19
2023-05-31T05:02:59.324Z,6.12
2023-05-31T05:05:25.855Z,6.20
2023-05-31T05:07:52.233Z,6.25
2023-05-31T05:10:18.600Z,6.34
2023-05-31T05:12:44.962Z,6.21
2023-05-31T05:15:11.364Z,6.49
2023-05-31T05:17:37.779Z,6.41
2023-05-31T05:20:04.181Z,6.47
2023-05-31T05:22:30.560Z,6.34
2023-05-31T05:24:56.929Z,6.61
2023-05-31T05:27:23.554Z,6.56
2023-05-31T05:29:50.242Z,6.60
2023-05-31T05:32:16.610Z,6.41
2023-05-31T05:34:42.962Z,6.54
2023-05-31T05:37:09.416Z,6.68
2023-05-31T05:39:35.790Z,6.56
2023-05-31T05:42:02.161Z,6.37
2023-05-31T05:44:28.564Z,6.71
2023-05-31T05:46:54.961Z,6.50
2023-05-31T05:49:21.330Z,6.75
2023-05-31T05:51:47.765Z,6.77
2023-05-31T05:54:14.333Z,6.76
2023-05-31T05:56:40.672Z,6.75
2023-05-31T05:59:07.043Z,6.80
2023-05-31T06:01:36.182Z,6.40
2023-05-31T06:04:02.841Z,6.74
2023-05-31T06:06:29.233Z,6.71
2023-05-31T06:08:55.598Z,6.58
2023-05-31T06:11:21.953Z,6.58
2023-05-31T06:13:48.348Z,6.78
2023-05-31T06:16:14.767Z,7.03
2023-05-31T06:18:41.236Z,6.40
2023-05-31T06:21:07.667Z,6.67
2023-05-31T06:23:34.116Z,7.06
2023-05-31T06:26:00.474Z,6.55
2023-05-31T06:28:26.863Z,6.73
2023-05-31T06:30:53.237Z,6.66
2023-05-31T06:33:19.587Z,6.29
2023-05-31T06:35:46.058Z,7.24
2023-05-31T06:38:12.448Z,6.57
2023-05-31T06:40:38.814Z,6.54
2023-05-31T06:43:05.235Z,6.95
2023-05-31T06:45:31.612Z,6.61
2023-05-31T06:48:00.167Z,6.73
2023-05-31T06:50:27.354Z,6.98
2023-05-31T06:52:53.737Z,6.71
2023-05-31T06:55:20.107Z,6.83
2023-05-31T06:57:46.514Z,7.06
2023-05-31T07:00:12.870Z,7.05
2023-05-31T07:02:39.261Z,6.77
2023-05-31T07:05:05.668Z,6.88
2023-05-31T07:07:32.044Z,6.87
2023-05-31T07:09:58.405Z,7.13
2023-05-31T07:12:24.783Z,7.13
2023-05-31T07:14:51.158Z,7.28
2023-05-31T07:17:17.534Z,6.95
2023-05-31T07:19:43.942Z,7.61
2023-05-31T07:22:10.311Z,7.39
2023-05-31T07:24:36.678Z,7.36
2023-05-31T07:27:03.050Z,7.52
2023-05-31T07:29:29.554Z,7.60
2023-05-31T07:31:55.918Z,7.73
2023-05-31T07:34:22.285Z,7.33
2023-05-31T07:36:48.687Z,7.83
2023-05-31T07:39:15.038Z,7.72
2023-05-31T07:41:41.418Z,7.37
2023-05-31T07:44:07.774Z,7.37
2023-05-31T07:46:34.137Z,7.02
2023-05-31T07:49:00.578Z,7.74
2023-05-31T07:51:26.978Z,7.56
2023-05-31T07:53:53.339Z,7.55
2023-05-31T07:56:19.760Z,7.55
2023-05-31T07:58:46.132Z,7.74
2023-05-31T08:01:12.485Z,7.83
2023-05-31T08:03:39.010Z,8.17
2023-05-31T08:06:05.427Z,8.06
2023-05-31T08:08:31.819Z,7.92
2023-05-31T08:10:58.213Z,7.87
2023-05-31T08:13:24.853Z,7.62
2023-05-31T08:15:51.197Z,7.94
2023-05-31T08:18:17.664Z,8.04
2023-05-31T08:20:44.093Z,7.95
2023-05-31T08:23:10.483Z,7.95
2023-05-31T08:25:36.856Z,8.08
2023-05-31T08:28:03.217Z,8.09
2023-05-31T08:30:29.564Z,7.92
2023-05-31T08:32:55.995Z,8.03
2023-05-31T08:35:22.381Z,8.05
2023-05-31T08:37:48.932Z,7.93
2023-05-31T08:40:16.581Z,7.91
2023-05-31T08:42:42.944Z,8.03
2023-05-31T08:45:09.300Z,7.72
2023-05-31T08:47:35.689Z,8.38
2023-05-31T08:50:02.061Z,8.03
2023-05-31T08:52:28.415Z,8.34
2023-05-31T08:54:54.806Z,8.27
2023-05-31T08:57:21.173Z,8.53
2023-05-31T08:59:47.505Z,8.49
2023-05-31T09:02:13.912Z,8.46
2023-05-31T09:04:40.288Z,7.94
2023-05-31T09:07:06.695Z,8.14
2023-05-31T09:09:33.073Z,8.10
2023-05-31T09:11:59.417Z,7.62
2023-05-31T09:14:25.792Z,8.16
2023-05-31T09:16:52.120Z,8.21
2023-05-31T09:19:18.477Z,8.24
2023-05-31T09:21:44.810Z,8.38
2023-05-31T09:24:11.166Z,8.28
2023-05-31T09:26:37.514Z,8.79
2023-05-31T09:29:03.876Z,8.89
2023-05-31T09:31:30.261Z,8.69
2023-05-31T09:33:56.608Z,8.36
2023-05-31T09:36:22.945Z,8.55
2023-05-31T09:38:49.310Z,8.18
2023-05-31T09:41:15.727Z,8.43
2023-05-31T09:43:42.079Z,8.66
2023-05-31T09:46:08.463Z,8.34
2023-05-31T09:48:34.844Z,8.42
2023-05-31T09:51:01.382Z,8.08
2023-05-31T09:53:27.807Z,8.28
2023-05-31T09:55:54.213Z,8.36
2023-05-31T09:58:20.569Z,7.53
2023-05-31T10:00:47.002Z,7.97
2023-05-31T10:03:13.440Z,7.84
2023-05-31T10:05:40.085Z,7.53
2023-05-31T10:08:06.507Z,7.24
2023-05-31T10:10:32.865Z,7.04
2023-05-31T10:13:00.650Z,6.71
2023-05-31T10:15:28.817Z,6.88
2023-05-31T10:17:55.197Z,7.05
2023-05-31T10:20:21.740Z,6.57
2023-05-31T10:22:48.144Z,6.63
2023-05-31T10:25:14.544Z,6.85
2023-05-31T10:27:40.901Z,6.70
2023-05-31T10:30:07.279Z,6.67
2023-05-31T10:32:33.680Z,6.32
2023-05-31T10:35:00.071Z,6.70
2023-05-31T10:37:26.464Z,6.77
2023-05-31T10:39:52.805Z,6.57
2023-05-31T10:42:19.159Z,6.65
2023-05-31T10:44:45.532Z,6.67
2023-05-31T10:47:12.014Z,6.45
2023-05-31T10:49:38.399Z,6.63
2023-05-31T10:52:04.761Z,6.37
2023-05-31T10:54:31.104Z,6.54
2023-05-31T10:56:57.452Z,6.49
2023-05-31T10:59:25.775Z,6.39
2023-05-31T11:01:52.191Z,6.05
2023-05-31T11:04:18.601Z,6.20
2023-05-31T11:06:45.062Z,6.45
2023-05-31T11:09:11.438Z,6.41
2023-05-31T11:11:37.827Z,6.81
2023-05-31T11:14:04.196Z,6.75
2023-05-31T11:16:30.591Z,6.94
2023-05-31T11:18:56.958Z,6.84
2023-05-31T11:21:23.329Z,6.12
2023-05-31T11:23:49.762Z,6.42
2023-05-31T11:26:16.114Z,6.40
2023-05-31T11:28:42.585Z,6.37
2023-05-31T11:31:08.935Z,6.38
2023-05-31T11:33:37.744Z,6.32
2023-05-31T11:36:08.155Z,6.24
2023-05-31T11:38:34.504Z,6.16
2023-05-31T11:41:00.999Z,6.35
2023-05-31T11:43:27.430Z,6.21
2023-05-31T11:45:53.774Z,5.90
2023-05-31T11:48:20.138Z,6.05
2023-05-31T11:50:46.494Z,5.94
2023-05-31T11:53:12.836Z,6.08
2023-05-31T11:55:39.179Z,5.84
2023-05-31T11:58:05.544Z,5.92
2023-05-31T12:00:31.866Z,5.75
2023-05-31T12:02:58.306Z,5.77
2023-05-31T12:05:24.752Z,5.64
2023-05-31T12:07:51.084Z,5.85
2023-05-31T12:10:17.412Z,5.97
2023-05-31T12:12:43.812Z,5.92
2023-05-31T12:15:10.162Z,5.77
2023-05-31T12:17:36.529Z,5.96
2023-05-31T12:20:02.924Z,5.83
2023-05-31T12:22:29.283Z,5.79
2023-05-31T12:24:55.617Z,5.69
2023-05-31T12:27:26.947Z,5.75
2023-05-31T12:30:03.588Z,5.71
2023-05-31T12:32:30.072Z,5.77
2023-05-31T12:34:56.471Z,5.98
2023-05-31T12:37:22.906Z,5.66
2023-05-31T12:39:49.277Z,6.25
2023-05-31T12:42:15.618Z,5.91
2023-05-31T12:44:41.960Z,5.84
2023-05-31T12:47:08.322Z,5.83
2023-05-31T12:49:34.681Z,5.88
2023-05-31T12:52:01.021Z,5.72
2023-05-31T12:54:27.414Z,5.77
2023-05-31T12:56:53.762Z,5.69
2023-05-31T12:59:20.102Z,5.52
2023-05-31T13:01:46.528Z,5.72
2023-05-31T13:04:12.924Z,5.65
2023-05-31T13:06:39.271Z,5.77
2023-05-31T13:09:05.653Z,5.62
2023-05-31T13:11:32.021Z,5.86
